Time;durP1;ratioP1;P1;durP2;ratioP2;P2;SDS_P1;SDS_P2;PMS_P1;PMS_P2;Temp;Humidity;BMP_temperature;BMP_pressure;BME280_temperature;BME280_humidity;BME280_pressure;Samples;Min_cycle;Max_cycle;Signal;HPM_P1;HPM_P2
2022/09/29 00:02:26;;;;;;;;;;;;;;;20.81;nan;94315.25;5580870;28;1113;-69
2022/09/29 00:05:09;;;;;;;;;;;;;;;20.83;nan;94318.47;5580794;28;1108;-69
2022/09/29 00:07:53;;;;;;;;;;;;;;;20.83;nan;94318.47;5579028;28;1088;-72
2022/09/29 00:10:39;;;;;;;;;;;;;;;20.83;nan;94318.47;5576351;28;1477;-65
2022/09/29 00:13:23;;;;;;;;;;;;;;;20.83;nan;94307.78;5603274;28;1013;-65
2022/09/29 00:16:06;;;;;;;;;;;;;;;-145.88;100.00;58037.16;5602421;28;1009;-65
2022/09/29 00:18:49;;;;;;;;;;;;;;;20.83;nan;94302.44;5603445;28;1096;-66
2022/09/29 00:21:32;;;;;;;;;;;;;;;20.83;nan;94297.13;5593509;28;1977;-65
2022/09/29 00:24:16;;;;;;;;;;;;;;;20.83;nan;94302.44;5599898;28;999;-66
2022/09/29 00:26:59;;;;;;;;;;;;;;;20.83;nan;94308.63;5580958;28;1032;-65
2022/09/29 00:29:42;;;;;;;;;;;;;;;20.83;nan;94319.31;5580596;28;994;-65
2022/09/29 00:32:25;;;;;;;;;;;;;;;20.83;nan;94308.63;5571463;28;1298;-68
2022/09/29 00:35:10;;;;;;;;;;;;;;;20.85;nan;94292.38;5581130;28;1097;-71
2022/09/29 00:37:53;;;;;;;;;;;;;;;20.85;nan;94289.69;5587810;28;1196;-70
2022/09/29 00:40:37;;;;;;;;;;;;;;;20.85;nan;94305.72;5601649;28;1906;-69
2022/09/29 00:43:21;;;;;;;;;;;;;;;20.86;nan;94308.16;5591769;28;1652;-69
2022/09/29 00:46:06;;;;;;;;;;;;;;;20.86;nan;94296.66;5602428;28;1638;-68
2022/09/29 00:48:49;;;;;;;;;;;;;;;20.86;nan;94296.66;5600823;28;1727;-65
2022/09/29 00:51:33;;;;;;;;;;;;;;;20.87;nan;94292.97;5599776;28;1480;-67
2022/09/29 00:54:16;;;;;;;;;;;;;;;20.87;nan;94287.63;5594507;28;1477;-66
2022/09/29 00:57:02;;;;;;;;;;;;;;;20.86;nan;94297.50;5595092;28;1508;-66
2022/09/29 00:59:48;;;;;;;;;;;;;;;20.86;nan;94294.81;5598440;28;1479;-64
2022/09/29 01:02:33;;;;;;;;;;;;;;;20.86;nan;94292.16;5602637;28;1989;-65
2022/09/29 01:05:19;;;;;;;;;;;;;;;20.87;nan;94304.44;5601130;28;1423;-65
2022/09/29 01:08:08;;;;;;;;;;;;;;;20.87;nan;94303.63;5571164;28;1594;-65
2022/09/29 01:10:51;;;;;;;;;;;;;;;20.86;nan;94292.16;5599133;28;1506;-65
2022/09/29 01:13:37;;;;;;;;;;;;;;;20.87;nan;94292.97;5606391;28;1447;-65
2022/09/29 01:16:21;;;;;;;;;;;;;;;20.87;nan;94299.09;5597126;28;1624;-67
2022/09/29 01:19:06;;;;;;;;;;;;;;;20.88;nan;94289.22;5587291;28;1712;-66
2022/09/29 01:21:56;;;;;;;;;;;;;;;20.88;nan;94294.56;5592066;28;1914;-70
2022/09/29 01:25:06;;;;;;;;;;;;;;;20.90;nan;94287.16;5579149;28;986;-70
2022/09/29 01:28:03;;;;;;;;;;;;;;;20.91;nan;94283.44;5578357;28;1550;-65
2022/09/29 01:30:55;;;;;;;;;;;;;;;20.93;nan;94292.03;5580505;28;1717;-66
2022/09/29 01:33:40;;;;;;;;;;;;;;;20.93;nan;94292.03;5595343;28;1805;-67
2022/09/29 01:36:27;;;;;;;;;;;;;;;20.93;nan;94303.53;5610634;28;1709;-67
2022/09/29 01:39:14;;;;;;;;;;;;;;;20.95;nan;94300.63;5600017;28;993;-67
2022/09/29 01:41:59;;;;;;;;;;;;;;;20.96;nan;94302.25;5592419;28;1902;-68
2022/09/29 01:44:45;;;;;;;;;;;;;;;21.00;nan;94308.78;5600249;28;1079;-71
2022/09/29 01:47:32;;;;;;;;;;;;;;;21.00;nan;94308.78;5593201;28;1464;-70
2022/09/29 01:50:18;;;;;;;;;;;;;;;20.99;nan;94313.28;5583228;28;1520;-76
2022/09/29 01:53:07;;;;;;;;;;;;;;;20.98;nan;94322.34;5592855;28;1666;-74
2022/09/29 01:55:51;;;;;;;;;;;;;;;20.97;nan;94326.06;5601980;28;806;-74
2022/09/29 01:58:37;;;;;;;;;;;;;;;20.96;nan;94329.75;5600940;28;1000;-73
2022/09/29 02:01:21;;;;;;;;;;;;;;;20.96;nan;94328.94;5601526;28;1988;-73
2022/09/29 02:04:09;;;;;;;;;;;;;;;20.95;nan;94322.00;5593185;28;1202;-73
2022/09/29 02:06:56;;;;;;;;;;;;;;;20.96;nan;94318.28;5593010;28;1143;-72
2022/09/29 02:09:42;;;;;;;;;;;;;;;20.95;nan;94322.81;5579222;28;898;-74
2022/09/29 02:12:27;;;;;;;;;;;;;;;20.95;nan;94327.34;5578438;28;990;-74
2022/09/29 02:15:12;;;;;;;;;;;;;;;20.95;nan;94322.00;5572835;28;1128;-67
2022/09/29 02:17:57;;;;;;;;;;;;;;;20.94;nan;94315.00;5576238;28;1129;-74
2022/09/29 02:20:42;;;;;;;;;;;;;;;20.94;nan;94321.19;5578149;28;1022;-74
2022/09/29 02:23:24;;;;;;;;;;;;;;;20.96;nan;94339.63;5577689;28;1905;-75
2022/09/29 02:26:07;;;;;;;;;;;;;;;20.94;nan;94331.03;5588499;28;1764;-70
2022/09/29 02:28:51;;;;;;;;;;;;;;;20.95;nan;94327.34;5573419;28;1181;-72
2022/09/29 02:31:36;;;;;;;;;;;;;;;20.94;nan;94336.38;5593422;28;1434;-73
2022/09/29 02:34:21;;;;;;;;;;;;;;;20.93;nan;94345.44;5593974;28;1642;-71
2022/09/29 02:37:12;;;;;;;;;;;;;;;20.93;nan;94324.06;5587836;28;1829;-73
2022/09/29 02:40:02;;;;;;;;;;;;;;;-144.57;nan;94316.06;5569450;28;1104;-73
2022/09/29 02:42:52;;;;;;;;;;;;;;;20.93;nan;94337.44;5599436;28;2001;-73
2022/09/29 02:45:40;;;;;;;;;;;;;;;20.93;nan;94329.41;5599366;28;1671;-73
2022/09/29 02:48:33;;;;;;;;;;;;;;;20.93;nan;94346.25;5583925;28;1572;-74
2022/09/29 02:51:19;;;;;;;;;;;;;;;20.93;nan;94340.09;5574762;28;1582;-74
2022/09/29 02:54:10;;;;;;;;;;;;;;;20.93;nan;94335.56;5600833;28;1000;-73
2022/09/29 02:56:58;;;;;;;;;;;;;;;20.94;nan;94341.72;5600310;28;2017;-73
2022/09/29 02:59:45;;;;;;;;;;;;;;;20.94;nan;94347.88;5599430;28;1810;-72
2022/09/29 03:02:28;;;;;;;;;;;;;;;20.95;nan;94348.69;5588463;28;1930;-70
2022/09/29 03:05:13;;;;;;;;;;;;;;;20.56;nan;94345.59;5599333;28;1709;-68
2022/09/29 03:07:56;;;;;;;;;;;;;;;20.07;nan;94348.25;5597429;28;1526;-72
2022/09/29 03:10:40;;;;;;;;;;;;;;;19.84;nan;94327.63;5587599;28;1375;-72
2022/09/29 03:13:23;;;;;;;;;;;;;;;19.70;nan;94326.16;5568384;28;1514;-72
2022/09/29 03:16:06;;;;;;;;;;;;;;;19.75;nan;94323.63;5602207;28;1593;-72
2022/09/29 03:18:49;;;;;;;;;;;;;;;19.67;nan;94315.94;5599925;28;1312;-71
2022/09/29 03:21:32;;;;;;;;;;;;;;;-144.57;nan;94281.66;5599085;28;1967;-72
2022/09/29 03:24:15;;;;;;;;;;;;;;;19.47;nan;94288.69;5593004;28;1116;-71
2022/09/29 03:26:59;;;;;;;;;;;;;;;19.48;nan;94300.94;5596385;28;1599;-71
2022/09/29 03:29:43;;;;;;;;;;;;;;;19.58;nan;94317.28;5600542;28;1547;-72
2022/09/29 03:32:25;;;;;;;;;;;;;;;19.58;nan;94318.09;5601312;28;1875;-71
2022/09/29 03:35:09;;;;;;;;;;;;;;;19.57;nan;94327.09;5598948;28;1395;-71
2022/09/29 03:37:52;;;;;;;;;;;;;;;19.60;nan;94328.50;5593120;28;1727;-66
2022/09/29 03:40:35;;;;;;;;;;;;;;;19.59;nan;94324.22;5596729;28;1686;-71
2022/09/29 03:43:19;;;;;;;;;;;;;;;19.53;nan;94314.47;5600152;28;1995;-74
2022/09/29 03:46:02;;;;;;;;;;;;;;;-144.57;nan;94317.31;5600582;28;1473;-71
2022/09/29 03:48:45;;;;;;;;;;;;;;;19.84;nan;94311.63;5575002;28;1770;-71
2022/09/29 03:51:28;;;;;;;;;;;;;;;19.66;nan;94304.47;5586529;28;1746;-69
2022/09/29 03:54:11;;;;;;;;;;;;;;;-144.57;nan;94325.78;5592140;28;1592;-70
2022/09/29 03:56:54;;;;;;;;;;;;;;;19.67;nan;94338.06;5598239;28;1433;-72
2022/09/29 03:59:38;;;;;;;;;;;;;;;19.74;nan;94337.19;5570612;28;1101;-70
2022/09/29 04:02:26;;;;;;;;;;;;;;;-144.57;nan;94321.19;5582621;28;1902;-66
2022/09/29 04:05:09;;;;;;;;;;;;;;;19.58;nan;94333.28;5595647;28;1474;-71
2022/09/29 04:07:52;;;;;;;;;;;;;;;-144.57;nan;94329.13;5587052;28;1478;-69
2022/09/29 04:10:35;;;;;;;;;;;;;;;19.70;nan;94336.81;5593545;28;1696;-68
2022/09/29 04:13:18;;;;;;;;;;;;;;;19.85;nan;94339.91;5586239;28;1671;-71
2022/09/29 04:16:04;;;;;;;;;;;;;;;19.75;nan;94339.63;5601777;28;1717;-72
2022/09/29 04:18:47;;;;;;;;;;;;;;;19.69;nan;94351.19;5599048;28;1156;-71
2022/09/29 04:21:30;;;;;;;;;;;;;;;19.62;nan;94345.91;5599305;28;1088;-72
2022/09/29 04:24:13;;;;;;;;;;;;;;;19.59;nan;94340.22;5597937;28;1965;-72
2022/09/29 04:26:56;;;;;;;;;;;;;;;19.58;nan;94339.41;5602601;28;997;-72
2022/09/29 04:29:39;;;;;;;;;;;;;;;19.53;nan;94346.44;5600828;28;1008;-72
2022/09/29 04:32:24;;;;;;;;;;;;;;;19.49;nan;94346.03;5599969;28;1219;-73
2022/09/29 04:35:07;;;;;;;;;;;;;;;-144.57;nan;94353.88;5592454;28;1314;-73
2022/09/29 04:37:56;;;;;;;;;;;;;;;19.40;nan;94348.16;5600246;28;1009;-71
2022/09/29 04:40:38;;;;;;;;;;;;;;;19.32;nan;94351.13;5600399;28;1099;-72
2022/09/29 04:43:21;;;;;;;;;;;;;;;19.38;nan;94360.91;5602088;28;1905;-73
2022/09/29 04:46:05;;;;;;;;;;;;;;;19.35;nan;94355.16;5594159;28;1096;-69
2022/09/29 04:48:49;;;;;;;;;;;;;;;-144.57;nan;94340.91;5602879;28;1044;-73
2022/09/29 04:51:32;;;;;;;;;;;;;;;19.27;nan;94337.66;5602786;28;1120;-73
2022/09/29 04:54:17;;;;;;;;;;;;;;;19.33;nan;94351.94;5603344;28;1049;-73
2022/09/29 04:57:00;;;;;;;;;;;;;;;19.28;nan;94354.44;5594052;28;1332;-73
2022/09/29 04:59:42;;;;;;;;;;;;;;;19.17;nan;94338.13;5602583;28;989;-73
2022/09/29 05:02:25;;;;;;;;;;;;;;;19.20;nan;94353.66;5602855;28;1886;-73
2022/09/29 05:05:11;;;;;;;;;;;;;;;19.16;nan;94357.00;5602015;28;1113;-72
2022/09/29 05:07:54;;;;;;;;;;;;;;;19.14;nan;94348.41;5593460;28;1074;-72
2022/09/29 05:10:36;;;;;;;;;;;;;;;19.15;nan;94350.03;5602114;28;1053;-71
2022/09/29 05:13:19;;;;;;;;;;;;;;;19.20;nan;94336.88;5602320;28;1021;-71
2022/09/29 05:16:02;;;;;;;;;;;;;;;19.17;nan;94327.47;5601584;28;1065;-72
2022/09/29 05:18:45;;;;;;;;;;;;;;;19.17;nan;94332.00;5593919;28;1113;-72
2022/09/29 05:21:29;;;;;;;;;;;;;;;19.08;nan;94333.31;5600851;28;1171;-72
2022/09/29 05:24:12;;;;;;;;;;;;;;;19.10;nan;94336.59;5601450;28;1910;-71
2022/09/29 05:26:55;;;;;;;;;;;;;;;19.13;nan;94331.63;5603017;28;1060;-72
2022/09/29 05:29:40;;;;;;;;;;;;;;;19.15;nan;94342.03;5598396;28;1032;-73
2022/09/29 05:32:26;;;;;;;;;;;;;;;19.17;nan;94353.28;5597547;28;1291;-73
2022/09/29 05:35:09;;;;;;;;;;;;;;;19.24;nan;94342.59;5601215;28;1143;-72
2022/09/29 05:38:00;;;;;;;;;;;;;;;19.27;nan;94331.50;5601930;28;1167;-72
2022/09/29 05:40:43;;;;;;;;;;;;;;;19.32;nan;94319.16;5596891;28;1625;-68
2022/09/29 05:43:26;;;;;;;;;;;;;;;19.31;nan;94311.38;5596975;28;1897;-75
2022/09/29 05:46:09;;;;;;;;;;;;;;;19.36;nan;94309.69;5601280;28;1000;-73
2022/09/29 05:48:53;;;;;;;;;;;;;;;19.38;nan;94312.94;5601884;28;810;-73
2022/09/29 05:51:36;;;;;;;;;;;;;;;19.45;nan;94329.66;5601530;28;1131;-72
2022/09/29 05:54:20;;;;;;;;;;;;;;;19.50;nan;94346.84;5592315;28;1292;-72
2022/09/29 05:57:03;;;;;;;;;;;;;;;19.59;nan;94361.53;5600631;28;1045;-73
2022/09/29 05:59:47;;;;;;;;;;;;;;;19.61;nan;94370.94;5601352;28;1203;-73
2022/09/29 06:02:29;;;;;;;;;;;;;;;19.63;nan;94346.72;5602776;28;1053;-74
2022/09/29 06:05:12;;;;;;;;;;;;;;;19.71;nan;94359.75;5593494;28;1957;-73
2022/09/29 06:07:55;;;;;;;;;;;;;;;19.77;nan;94369.53;5602645;28;985;-73
2022/09/29 06:10:40;;;;;;;;;;;;;;;19.82;nan;94371.53;5601308;28;1037;-72
2022/09/29 06:13:24;;;;;;;;;;;;;;;19.90;nan;94363.25;5602922;28;1021;-74
2022/09/29 06:16:07;;;;;;;;;;;;;;;19.92;nan;94365.66;5592202;28;1090;-73
2022/09/29 06:18:53;;;;;;;;;;;;;;;19.96;nan;94382.88;5601583;28;1001;-75
2022/09/29 06:21:38;;;;;;;;;;;;;;;19.97;nan;94385.28;5601538;28;703;-73
2022/09/29 06:24:21;;;;;;;;;;;;;;;20.00;nan;94378.72;5601681;28;1985;-73
2022/09/29 06:27:05;;;;;;;;;;;;;;;20.03;nan;94378.25;5592348;28;1063;-74
2022/09/29 06:29:49;;;;;;;;;;;;;;;20.04;nan;94374.56;5601443;28;1128;-74
2022/09/29 06:32:33;;;;;;;;;;;;;;;20.06;nan;94373.31;5600848;28;1306;-70
2022/09/29 06:38:16;;;;;;;;;;;;;;;20.18;nan;94375.22;5591685;28;1182;-71
2022/09/29 06:41:00;;;;;;;;;;;;;;;20.22;nan;94377.19;5600004;28;1070;-72
2022/09/29 06:43:44;;;;;;;;;;;;;;;20.27;nan;94380.00;5599739;28;1909;-73
2022/09/29 06:46:27;;;;;;;;;;;;;;;20.27;nan;94390.69;5599404;28;1029;-73
2022/09/29 06:49:11;;;;;;;;;;;;;;;20.24;nan;94385.00;5594759;28;1100;-72
2022/09/29 06:51:54;;;;;;;;;;;;;;;20.27;nan;94374.69;5594580;28;1092;-72
2022/09/29 06:54:37;;;;;;;;;;;;;;;20.22;nan;94377.19;5600715;28;1033;-72
2022/09/29 06:57:20;;;;;;;;;;;;;;;20.21;nan;94380.91;5600433;28;887;-72
2022/09/29 07:00:05;;;;;;;;;;;;;;;20.20;nan;94379.28;5600823;28;1056;-72
2022/09/29 07:02:51;;;;;;;;;;;;;;;20.20;nan;94389.94;5598003;28;1066;-65
2022/09/29 07:05:34;;;;;;;;;;;;;;;20.27;nan;94405.88;5604260;28;1913;-66
2022/09/29 07:08:17;;;;;;;;;;;;;;;20.34;nan;94406.59;5603852;28;1048;-67
2022/09/29 07:11:02;;;;;;;;;;;;;;;20.41;nan;94411.91;5603581;28;1080;-67
2022/09/29 07:13:44;;;;;;;;;;;;;;;20.46;nan;94414.69;5594170;28;1175;-70
2022/09/29 07:16:29;;;;;;;;;;;;;;;20.46;nan;94409.34;5602918;28;997;-67
2022/09/29 07:19:11;;;;;;;;;;;;;;;20.50;nan;94405.22;5602840;28;994;-66
2022/09/29 07:21:54;;;;;;;;;;;;;;;20.56;nan;94409.63;5603620;28;1133;-68
2022/09/29 07:24:37;;;;;;;;;;;;;;;-144.57;nan;94402.22;5593664;28;1983;-67
2022/09/29 07:27:23;;;;;;;;;;;;;;;20.58;nan;94386.22;5602547;28;1112;-66
2022/09/29 07:30:06;;;;;;;;;;;;;;;20.59;nan;94381.69;5603925;28;1006;-66
2022/09/29 07:32:50;;;;;;;;;;;;;;;-144.57;nan;94395.25;5602296;28;1295;-67
2022/09/29 07:35:44;;;;;;;;;;;;;;;20.55;nan;94392.00;5593911;28;1144;-66
2022/09/29 07:38:27;;;;;;;;;;;;;;;20.55;nan;94392.00;5603308;28;1028;-66
2022/09/29 07:41:11;;;;;;;;;;;;;;;20.61;nan;94411.63;5602962;28;990;-67
2022/09/29 07:43:54;;;;;;;;;;;;;;;20.64;nan;94401.31;5602879;28;1981;-67
2022/09/29 07:46:37;;;;;;;;;;;;;;;20.62;nan;94407.91;5593773;28;1260;-67
2022/09/29 07:49:21;;;;;;;;;;;;;;;20.61;nan;94396.44;5601486;28;1071;-67
2022/09/29 07:52:04;;;;;;;;;;;;;;;20.66;nan;94403.75;5601573;28;1179;-66
2022/09/29 07:54:46;;;;;;;;;;;;;;;-144.57;nan;94402.47;5601449;28;1055;-66
2022/09/29 07:57:29;;;;;;;;;;;;;;;20.72;nan;94408.19;5595976;28;1068;-66
2022/09/29 08:00:13;;;;;;;;;;;;;;;20.73;nan;94415.97;5598750;28;1104;-66
2022/09/29 08:02:56;;;;;;;;;;;;;;;20.76;nan;94420.03;5600836;28;1005;-66
2022/09/29 08:05:41;;;;;;;;;;;;;;;20.78;nan;94410.75;5601163;28;1996;-66
2022/09/29 08:08:26;;;;;;;;;;;;;;;20.81;nan;94416.69;5598142;28;1048;-66
2022/09/29 08:11:10;;;;;;;;;;;;;;;20.81;nan;94422.03;5596535;28;1031;-66
2022/09/29 08:14:04;;;;;;;;;;;;;;;20.81;nan;94422.03;5600004;28;1096;-66
2022/09/29 08:16:47;;;;;;;;;;;;;;;20.81;nan;94427.38;5601113;28;1164;-65
2022/09/29 08:19:30;;;;;;;;;;;;;;;20.79;nan;94431.06;5601261;28;1101;-66
2022/09/29 08:22:14;;;;;;;;;;;;;;;20.81;nan;94422.84;5592561;28;986;-66
2022/09/29 08:24:58;;;;;;;;;;;;;;;20.84;nan;94416.25;5600751;28;1906;-66
2022/09/29 08:27:41;;;;;;;;;;;;;;;20.86;nan;94419.47;5601019;28;989;-66
2022/09/29 08:30:35;;;;;;;;;;;;;;;20.88;nan;94422.75;5601461;28;1021;-66
2022/09/29 08:33:18;;;;;;;;;;;;;;;20.88;nan;94428.09;5590080;28;1207;-66
2022/09/29 08:36:05;;;;;;;;;;;;;;;20.87;nan;94426.47;5600327;28;1269;-66
2022/09/29 08:38:50;;;;;;;;;;;;;;;20.87;nan;94431.81;5601012;28;1170;-68
2022/09/29 08:41:41;;;;;;;;;;;;;;;20.88;nan;94433.44;5600847;28;1065;-66
2022/09/29 08:44:29;;;;;;;;;;;;;;;20.87;nan;94442.50;5590556;28;1984;-66
2022/09/29 08:47:22;;;;;;;;;;;;;;;20.90;nan;94426.81;5600309;28;1053;-65
2022/09/29 08:50:11;;;;;;;;;;;;;;;20.91;nan;94427.63;5600718;28;1004;-66
2022/09/29 08:52:55;;;;;;;;;;;;;;;20.94;nan;94427.16;5601323;28;746;-66
2022/09/29 08:55:43;;;;;;;;;;;;;;;20.94;nan;94432.50;5589921;28;1335;-66
2022/09/29 08:58:26;;;;;;;;;;;;;;;20.96;nan;94430.44;5600158;28;1124;-66
2022/09/29 09:01:17;;;;;;;;;;;;;;;20.97;nan;94438.22;5599935;28;1548;-66
2022/09/29 09:04:14;;;;;;;;;;;;;;;20.99;nan;94435.31;5599866;28;997;-66
2022/09/29 09:07:02;;;;;;;;;;;;;;;20.98;nan;94429.16;5590360;28;1914;-65
2022/09/29 09:09:51;;;;;;;;;;;;;;;20.98;nan;94433.69;5599378;28;1131;-65
2022/09/29 09:12:46;;;;;;;;;;;;;;;20.99;nan;94430.78;5602253;28;1065;-66
2022/09/29 09:15:37;;;;;;;;;;;;;;;20.99;nan;94425.44;5599954;28;981;-75
2022/09/29 09:18:36;;;;;;;;;;;;;;;21.01;nan;94433.25;5589963;28;1172;-66
2022/09/29 09:21:19;;;;;;;;;;;;;;;21.01;nan;94422.56;5600463;28;1075;-66
2022/09/29 09:24:05;;;;;;;;;;;;;;;21.03;nan;94420.47;5599051;28;1283;-66
2022/09/29 09:26:48;;;;;;;;;;;;;;;21.06;nan;94425.38;5600384;28;1911;-66
2022/09/29 09:29:34;;;;;;;;;;;;;;;21.06;nan;94419.19;5591024;28;1095;-66
2022/09/29 09:32:22;;;;;;;;;;;;;;;21.05;nan;94423.72;5599349;28;1387;-66
2022/09/29 09:35:11;;;;;;;;;;;;;;;21.08;nan;94427.78;5600142;28;1567;-66
2022/09/29 09:38:11;;;;;;;;;;;;;;;21.09;nan;94426.75;5599794;28;1029;-66
2022/09/29 09:40:55;;;;;;;;;;;;;;;21.09;nan;94424.91;5590462;28;1142;-66
2022/09/29 09:43:41;;;;;;;;;;;;;;;21.08;nan;94417.91;5599925;28;940;-66
2022/09/29 09:46:29;;;;;;;;;;;;;;;21.09;nan;94419.56;5598826;28;1970;-66
2022/09/29 09:49:19;;;;;;;;;;;;;;;21.08;nan;94422.44;5599019;28;1329;-66
2022/09/29 09:52:04;;;;;;;;;;;;;;;21.09;nan;94424.09;5583354;28;1849;-66
2022/09/29 09:54:48;;;;;;;;;;;;;;;21.10;nan;94425.72;5576024;28;1028;-66
2022/09/29 09:57:40;;;;;;;;;;;;;;;21.11;nan;94416.66;5576890;28;914;-66
2022/09/29 10:00:25;;;;;;;;;;;;;;;21.11;nan;94411.31;5576684;28;1049;-65
2022/09/29 10:03:11;;;;;;;;;;;;;;;21.12;nan;94408.41;5566945;28;1148;-73
2022/09/29 10:05:55;;;;;;;;;;;;;;;21.14;nan;94417.03;5577053;28;1910;-66
2022/09/29 10:08:40;;;;;;;;;;;;;;;21.14;nan;94422.38;5576169;28;1021;-65
2022/09/29 10:11:24;;;;;;;;;;;;;;;21.13;nan;94420.72;5577038;28;1069;-65
2022/09/29 10:14:11;;;;;;;;;;;;;;;21.14;nan;94422.38;5567430;28;1423;-67
2022/09/29 10:16:55;;;;;;;;;;;;;;;21.15;nan;94423.97;5576073;28;1056;-66
2022/09/29 10:19:56;;;;;;;;;;;;;;;21.14;nan;94417.03;5576842;28;1006;-66
2022/09/29 10:22:39;;;;;;;;;;;;;;;21.13;nan;94420.72;5576965;28;1009;-67
2022/09/29 10:25:22;;;;;;;;;;;;;;;21.14;nan;94411.69;5566801;28;1905;-66
2022/09/29 10:28:06;;;;;;;;;;;;;;;21.14;nan;94416.19;5576822;28;1230;-66
2022/09/29 10:30:49;;;;;;;;;;;;;;;21.15;nan;94423.19;5576196;28;985;-67
2022/09/29 10:33:32;;;;;;;;;;;;;;;21.15;nan;94415.97;5576022;28;1198;-66
2022/09/29 10:36:19;;;;;;;;;;;;;;;21.14;nan;94411.69;5570944;28;1011;-65
2022/09/29 10:39:01;;;;;;;;;;;;;;;21.15;nan;94417.84;5572819;28;1377;-65
2022/09/29 10:41:52;;;;;;;;;;;;;;;21.14;nan;94410.84;5576288;28;996;-65
2022/09/29 10:44:39;;;;;;;;;;;;;;;21.14;nan;94406.34;5576151;28;1006;-66
2022/09/29 10:47:23;;;;;;;;;;;;;;;21.15;nan;94423.97;5571075;28;2003;-65
2022/09/29 10:50:12;;;;;;;;;;;;;;;21.14;nan;94422.38;5571975;28;999;-65
2022/09/29 10:52:58;;;;;;;;;;;;;;;21.14;nan;94417.03;5576471;28;1104;-65
2022/09/29 10:55:48;;;;;;;;;;;;;;;21.14;nan;94405.50;5576432;28;931;-65
2022/09/29 10:58:32;;;;;;;;;;;;;;;21.15;nan;94397.25;5572274;28;1158;-66
2022/09/29 11:01:44;;;;;;;;;;;;;;;21.14;nan;94400.16;5570992;28;1083;-65
2022/09/29 11:04:28;;;;;;;;;;;;;;;21.15;nan;94401.81;5576623;28;1064;-65
2022/09/29 11:07:12;;;;;;;;;;;;;;;21.14;nan;94406.34;5575816;28;1973;-66
2022/09/29 11:09:56;;;;;;;;;;;;;;;21.15;nan;94407.94;5571696;28;1040;-66
2022/09/29 11:12:39;;;;;;;;;;;;;;;21.14;nan;94401.00;5571519;28;1438;-65
2022/09/29 11:15:24;;;;;;;;;;;;;;;21.13;nan;94399.34;5576404;28;1093;-65
2022/09/29 11:18:17;;;;;;;;;;;;;;;21.13;nan;94410.03;5576159;28;1021;-65
2022/09/29 11:21:05;;;;;;;;;;;;;;;21.13;nan;94399.34;5576271;28;1033;-65
2022/09/29 11:23:53;;;;;;;;;;;;;;;21.15;nan;94401.81;5569392;28;1048;-65
2022/09/29 11:26:40;;;;;;;;;;;;;;;21.15;nan;94391.13;5575810;28;1965;-66
2022/09/29 11:29:32;;;;;;;;;;;;;;;21.15;nan;94385.78;5576121;28;1143;-66
2022/09/29 11:32:24;;;;;;;;;;;;;;;21.14;nan;94390.31;5575665;28;1326;-65
2022/09/29 11:35:23;;;;;;;;;;;;;;;21.15;nan;94386.59;5568768;28;1240;-67
2022/09/29 11:38:22;;;;;;;;;;;;;;;-144.57;nan;94390.31;5575880;28;1078;-64
2022/09/29 11:41:16;;;;;;;;;;;;;;;21.14;nan;94371.59;5576739;28;997;-66
2022/09/29 11:44:09;;;;;;;;;;;;;;;21.13;nan;94372.63;5571444;28;1563;-66
2022/09/29 11:46:59;;;;;;;;;;;;;;;21.15;nan;94391.13;5570728;28;1995;-66
2022/09/29 11:49:54;;;;;;;;;;;;;;;21.16;nan;94387.38;5580047;28;1029;-65
2022/09/29 11:52:47;;;;;;;;;;;;;;;21.14;nan;94384.97;5579774;28;984;-65
2022/09/29 11:55:34;;;;;;;;;;;;;;;21.13;nan;94387.84;5575336;28;1351;-66
2022/09/29 11:58:23;;;;;;;;;;;;;;;21.12;nan;94380.91;5574714;28;1035;-65
2022/09/29 12:01:18;;;;;;;;;;;;;;;21.11;nan;94374.72;5579957;28;1056;-65
2022/09/29 12:04:12;;;;;;;;;;;;;;;21.13;nan;94388.66;5580037;28;1013;-66
2022/09/29 12:06:57;;;;;;;;;;;;;;;21.10;nan;94383.78;5574813;28;1971;-67
2022/09/29 12:09:58;;;;;;;;;;;;;;;21.10;nan;94373.09;5575196;28;1083;-66
2022/09/29 12:12:44;;;;;;;;;;;;;;;-144.57;nan;94373.91;5579805;28;982;-66
2022/09/29 12:15:33;;;;;;;;;;;;;;;21.11;nan;94384.59;5579523;28;1025;-66
2022/09/29 12:18:22;;;;;;;;;;;;;;;21.11;nan;94380.06;5574752;28;1545;-66
2022/09/29 12:21:07;;;;;;;;;;;;;;;21.10;nan;94362.41;5575232;28;1143;-66
2022/09/29 12:23:50;;;;;;;;;;;;;;;21.11;nan;94368.56;5579803;28;1198;-66
2022/09/29 12:26:33;;;;;;;;;;;;;;;21.11;nan;94368.56;5579090;28;1965;-66
2022/09/29 12:29:26;;;;;;;;;;;;;;;21.12;nan;94375.56;5576154;28;1082;-67
2022/09/29 12:32:13;;;;;;;;;;;;;;;21.11;nan;94379.25;5574336;28;1205;-66
2022/09/29 12:35:04;;;;;;;;;;;;;;;21.13;nan;94399.34;5579111;28;1150;-67
2022/09/29 12:37:52;;;;;;;;;;;;;;;21.12;nan;94391.56;5578060;28;681;-66
2022/09/29 12:40:37;;;;;;;;;;;;;;;21.12;nan;94392.38;5577120;28;1101;-67
2022/09/29 12:43:23;;;;;;;;;;;;;;;21.12;nan;94392.38;5573393;28;1084;-66
2022/09/29 12:46:11;;;;;;;;;;;;;;;21.12;nan;94387.03;5579377;28;1005;-66
2022/09/29 12:48:58;;;;;;;;;;;;;;;21.12;nan;94392.38;5578528;28;986;-67
2022/09/29 12:51:44;;;;;;;;;;;;;;;21.12;nan;94386.25;5578908;28;927;-66
2022/09/29 12:54:32;;;;;;;;;;;;;;;21.12;nan;94375.56;5571238;28;1156;-66
2022/09/29 12:57:15;;;;;;;;;;;;;;;21.12;nan;94370.22;5579017;28;1045;-65
2022/09/29 13:00:01;;;;;;;;;;;;;;;21.10;nan;94378.44;5577107;28;990;-66
2022/09/29 13:02:52;;;;;;;;;;;;;;;21.13;nan;94382.50;5578462;28;966;-67
2022/09/29 13:05:44;;;;;;;;;;;;;;;21.13;nan;94387.84;5568753;28;1355;-67
2022/09/29 13:08:44;;;;;;;;;;;;;;;21.13;nan;94394.00;5579158;28;1910;-73
2022/09/29 13:11:52;;;;;;;;;;;;;;;21.12;nan;94387.03;5580186;28;1001;-66
2022/09/29 13:14:45;;;;;;;;;;;;;;;21.13;nan;94388.66;5574888;28;1323;-67
2022/09/29 13:17:34;;;;;;;;;;;;;;;21.08;nan;94375.19;5576706;28;1216;-65
2022/09/29 13:20:43;;;;;;;;;;;;;;;21.08;nan;94375.19;5581661;28;903;-66
2022/09/29 13:23:41;;;;;;;;;;;;;;;21.07;nan;94384.25;5576968;28;1045;-66
2022/09/29 13:26:34;;;;;;;;;;;;;;;-144.57;nan;94378.91;5576430;28;1075;-65
2022/09/29 13:29:20;;;;;;;;;;;;;;;-144.57;nan;94376.00;5579505;28;1102;-66
2022/09/29 13:32:03;;;;;;;;;;;;;;;21.08;nan;94391.19;5579127;28;1367;-65
2022/09/29 13:34:48;;;;;;;;;;;;;;;21.11;nan;94390.75;5579036;28;1145;-65
2022/09/29 13:37:33;;;;;;;;;;;;;;;21.12;nan;94387.03;5573866;28;1017;-66
2022/09/29 13:40:18;;;;;;;;;;;;;;;21.11;nan;94396.09;5572667;28;1125;-66
2022/09/29 13:43:04;;;;;;;;;;;;;;;21.10;nan;94383.78;5576964;28;1295;-66
2022/09/29 13:45:46;;;;;;;;;;;;;;;21.09;nan;94387.50;5577614;28;973;-69
2022/09/29 13:48:37;;;;;;;;;;;;;;;21.09;nan;94392.03;5577345;28;1906;-67
2022/09/29 13:51:26;;;;;;;;;;;;;;;21.08;nan;94396.53;5572179;28;1181;-66
2022/09/29 13:54:27;;;;;;;;;;;;;;;21.07;nan;94394.13;5578016;28;1256;-65
2022/09/29 13:57:28;;;;;;;;;;;;;;;21.05;nan;94413.03;5577659;28;1081;-65
2022/09/29 14:00:20;;;;;;;;;;;;;;;21.07;nan;94416.28;5574221;28;1239;-65
2022/09/29 14:03:06;;;;;;;;;;;;;;;21.08;nan;94407.22;5572904;28;1066;-66
2022/09/29 14:05:54;;;;;;;;;;;;;;;21.08;nan;94407.22;5577096;28;1203;-67
2022/09/29 14:08:39;;;;;;;;;;;;;;;21.09;nan;94398.19;5577601;28;1917;-66
2022/09/29 14:11:24;;;;;;;;;;;;;;;21.10;nan;94399.81;5574095;28;1038;-66
2022/09/29 14:14:09;;;;;;;;;;;;;;;21.08;nan;94407.22;5573073;28;1087;-66
2022/09/29 14:16:54;;;;;;;;;;;;;;;21.07;nan;94394.13;5579854;28;1044;-66
2022/09/29 14:19:42;;;;;;;;;;;;;;;21.07;nan;94405.63;5579660;28;1101;-66
2022/09/29 14:22:44;;;;;;;;;;;;;;;21.06;nan;94420.03;5579002;28;997;-66
2022/09/29 14:25:48;;;;;;;;;;;;;;;21.06;nan;94441.38;5574427;28;1074;-66
2022/09/29 14:28:41;;;;;;;;;;;;;;;21.04;nan;94443.47;5578316;28;1942;-66
2022/09/29 14:31:27;;;;;;;;;;;;;;;21.04;nan;94470.19;5578529;28;1559;-66
2022/09/29 14:34:11;;;;;;;;;;;;;;;21.05;nan;94492.34;5573369;28;1382;-66
2022/09/29 14:36:56;;;;;;;;;;;;;;;21.03;nan;94511.28;5574513;28;1108;-66
2022/09/29 14:39:39;;;;;;;;;;;;;;;-144.57;nan;94490.38;5578098;28;974;-66
2022/09/29 14:42:22;;;;;;;;;;;;;;;20.99;nan;94504.75;5584740;28;1649;-66
2022/09/29 14:54:24;;;;;;;;;;;;;;;20.93;nan;94533.19;5600906;28;1872;-68
2022/09/29 14:57:11;;;;;;;;;;;;;;;20.89;nan;94523.19;5596880;28;1348;-67
2022/09/29 15:00:01;;;;;;;;;;;;;;;20.86;nan;94516.44;5596076;28;1192;-67
2022/09/29 15:02:47;;;;;;;;;;;;;;;20.81;nan;94518.16;5601940;28;1123;-68
2022/09/29 15:05:37;;;;;;;;;;;;;;;20.72;nan;94521.13;5601456;28;1088;-67
2022/09/29 15:08:27;;;;;;;;;;;;;;;20.62;nan;94515.50;5597653;28;1918;-67
2022/09/29 15:11:45;;;;;;;;;;;;;;;20.57;nan;94502.00;5596785;28;1320;-67
2022/09/29 15:14:29;;;;;;;;;;;;;;;20.55;nan;94509.44;5602202;28;997;-67